X  Cerrar Datos meteorológicos de aviación METAR     KNPA Naval Air Station Pensacola Forrest Sherman Field
Temperatura
61°F Temperatura
48°F Punto de rocío
63% Humedad



Viento
7 MPH
11 KM/H
3 M/S
6 NUDO



60°
ENE
Condiciones actuales

Parcialmente nublado Parcialmente nublado
Presión 1023.72 (hPa) - 30.23 (inHg)
Visibilidad 10 (milla) - 16.1 (km)
Aeropuerto
Código de aeropuerto KNPA

localidad: Naval Air Station Pensacola Forrest Sherman Field
Distancia: 9 (mi)

Metar:
KNPA 061456Z 06006KT 10SM FEW050 16/09 A3023 RMK AO2 SLP237 T01610089 53007 $

Hora: 02-06-2023 08:56 CST